sensor_id;sensor_type;location;lat;lon;timestamp;pressure;altitude;pressure_sealevel;temperature;humidity
6680;BME280;3376;42.664;23.346;2023-01-26T00:01:21;94983.66;;;1.50;100.00
6680;BME280;3376;42.664;23.346;2023-01-26T00:03:48;94992.03;;;1.52;100.00
6680;BME280;3376;42.664;23.346;2023-01-26T00:06:17;94998.63;;;1.44;100.00
6680;BME280;3376;42.664;23.346;2023-01-26T00:08:46;95001.09;;;1.33;100.00
6680;BME280;3376;42.664;23.346;2023-01-26T00:11:15;94978.13;;;1.33;100.00
6680;BME280;3376;42.664;23.346;2023-01-26T00:13:42;94979.06;;;1.32;100.00
6680;BME280;3376;42.664;23.346;2023-01-26T00:16:10;94987.31;;;1.35;100.00
6680;BME280;3376;42.664;23.346;2023-01-26T00:18:40;94997.53;;;1.35;100.00
6680;BME280;3376;42.664;23.346;2023-01-26T00:21:08;94996.38;;;1.39;100.00
6680;BME280;3376;42.664;23.346;2023-01-26T00:23:37;94990.88;;;1.33;100.00
6680;BME280;3376;42.664;23.346;2023-01-26T00:26:05;94992.63;;;1.32;100.00
6680;BME280;3376;42.664;23.346;2023-01-26T00:28:32;94994.03;;;1.36;100.00
6680;BME280;3376;42.664;23.346;2023-01-26T00:31:01;94982.34;;;1.34;100.00
6680;BME280;3376;42.664;23.346;2023-01-26T00:33:29;94936.78;;;1.16;100.00
6680;BME280;3376;42.664;23.346;2023-01-26T00:35:57;94952.47;;;1.23;100.00
6680;BME280;3376;42.664;23.346;2023-01-26T00:38:23;94963.31;;;1.38;100.00
6680;BME280;3376;42.664;23.346;2023-01-26T00:40:50;94959.38;;;1.34;100.00
6680;BME280;3376;42.664;23.346;2023-01-26T00:43:17;94956.09;;;1.32;100.00
6680;BME280;3376;42.664;23.346;2023-01-26T00:45:43;94959.56;;;1.31;100.00
6680;BME280;3376;42.664;23.346;2023-01-26T00:48:10;94958.81;;;1.17;100.00
6680;BME280;3376;42.664;23.346;2023-01-26T00:50:37;94969.63;;;1.21;100.00
6680;BME280;3376;42.664;23.346;2023-01-26T00:53:05;94957.84;;;1.31;100.00
6680;BME280;3376;42.664;23.346;2023-01-26T00:55:32;94954.06;;;1.13;100.00
6680;BME280;3376;42.664;23.346;2023-01-26T00:57:58;94953.72;;;1.17;100.00
6680;BME280;3376;42.664;23.346;2023-01-26T01:00:25;94954.34;;;1.08;100.00
6680;BME280;3376;42.664;23.346;2023-01-26T01:02:52;94947.78;;;1.17;100.00
6680;BME280;3376;42.664;23.346;2023-01-26T01:05:20;94942.53;;;1.07;100.00
6680;BME280;3376;42.664;23.346;2023-01-26T01:07:47;94941.00;;;1.05;100.00
6680;BME280;3376;42.664;23.346;2023-01-26T01:10:15;94944.16;;;1.08;100.00
6680;BME280;3376;42.664;23.346;2023-01-26T01:12:42;94941.94;;;1.04;100.00
6680;BME280;3376;42.664;23.346;2023-01-26T01:15:10;94952.53;;;1.10;100.00
6680;BME280;3376;42.664;23.346;2023-01-26T01:17:36;94951.94;;;0.94;100.00
6680;BME280;3376;42.664;23.346;2023-01-26T01:20:04;94931.78;;;0.91;100.00
6680;BME280;3376;42.664;23.346;2023-01-26T01:22:32;94877.41;;;0.67;100.00
6680;BME280;3376;42.664;23.346;2023-01-26T01:24:59;94924.84;;;0.93;100.00
6680;BME280;3376;42.664;23.346;2023-01-26T01:27:27;94925.53;;;0.72;100.00
6680;BME280;3376;42.664;23.346;2023-01-26T01:29:54;94935.50;;;0.75;100.00
6680;BME280;3376;42.664;23.346;2023-01-26T01:32:20;94946.34;;;0.66;100.00
6680;BME280;3376;42.664;23.346;2023-01-26T01:34:47;94904.19;;;0.49;100.00
6680;BME280;3376;42.664;23.346;2023-01-26T01:37:15;94914.78;;;0.56;100.00
6680;BME280;3376;42.664;23.346;2023-01-26T01:39:42;94924.91;;;0.32;100.00
6680;BME280;3376;42.664;23.346;2023-01-26T01:42:08;94929.78;;;0.35;100.00
6680;BME280;3376;42.664;23.346;2023-01-26T01:44:37;94915.22;;;0.37;100.00
6680;BME280;3376;42.664;23.346;2023-01-26T01:47:06;94921.53;;;0.44;100.00
6680;BME280;3376;42.664;23.346;2023-01-26T01:49:37;94927.50;;;0.56;100.00
6680;BME280;3376;42.664;23.346;2023-01-26T01:52:10;94894.00;;;0.49;100.00
6680;BME280;3376;42.664;23.346;2023-01-26T01:54:40;94920.75;;;0.67;100.00
6680;BME280;3376;42.664;23.346;2023-01-26T01:57:11;94927.31;;;0.82;100.00
6680;BME280;3376;42.664;23.346;2023-01-26T01:59:48;94920.66;;;0.92;100.00
6680;BME280;3376;42.664;23.346;2023-01-26T02:02:17;94927.38;;;0.93;100.00
6680;BME280;3376;42.664;23.346;2023-01-26T02:04:44;94919.09;;;1.02;100.00
6680;BME280;3376;42.664;23.346;2023-01-26T02:07:11;94914.72;;;1.04;100.00
6680;BME280;3376;42.664;23.346;2023-01-26T02:09:38;94915.50;;;1.05;100.00
6680;BME280;3376;42.664;23.346;2023-01-26T02:12:26;94901.50;;;1.10;100.00
6680;BME280;3376;42.664;23.346;2023-01-26T02:14:56;94894.34;;;0.92;100.00
6680;BME280;3376;42.664;23.346;2023-01-26T02:17:23;94902.00;;;0.92;100.00
6680;BME280;3376;42.664;23.346;2023-01-26T02:19:57;94891.03;;;1.02;100.00
6680;BME280;3376;42.664;23.346;2023-01-26T02:22:40;94890.75;;;0.94;100.00
6680;BME280;3376;42.664;23.346;2023-01-26T02:25:12;94861.19;;;0.92;100.00
6680;BME280;3376;42.664;23.346;2023-01-26T02:27:43;94868.19;;;1.01;100.00
6680;BME280;3376;42.664;23.346;2023-01-26T02:30:28;94872.03;;;1.06;100.00
6680;BME280;3376;42.664;23.346;2023-01-26T02:32:55;94876.50;;;0.92;100.00
6680;BME280;3376;42.664;23.346;2023-01-26T02:35:22;94864.59;;;1.03;100.00
6680;BME280;3376;42.664;23.346;2023-01-26T02:37:48;94863.88;;;0.90;100.00
6680;BME280;3376;42.664;23.346;2023-01-26T02:40:25;94863.03;;;0.90;100.00
6680;BME280;3376;42.664;23.346;2023-01-26T02:42:57;94856.00;;;0.93;100.00
6680;BME280;3376;42.664;23.346;2023-01-26T02:45:24;94857.72;;;0.93;100.00
6680;BME280;3376;42.664;23.346;2023-01-26T02:47:51;94861.63;;;0.86;100.00
6680;BME280;3376;42.664;23.346;2023-01-26T02:50:18;94852.88;;;0.77;100.00
6680;BME280;3376;42.664;23.346;2023-01-26T02:52:44;94857.31;;;0.75;100.00
6680;BME280;3376;42.664;23.346;2023-01-26T02:55:11;94847.03;;;0.64;100.00
6680;BME280;3376;42.664;23.346;2023-01-26T02:57:52;94831.69;;;0.53;100.00
6680;BME280;3376;42.664;23.346;2023-01-26T03:00:22;94840.75;;;0.57;100.00
6680;BME280;3376;42.664;23.346;2023-01-26T03:02:50;94832.13;;;0.47;100.00
6680;BME280;3376;42.664;23.346;2023-01-26T03:05:17;94828.81;;;0.34;100.00
6680;BME280;3376;42.664;23.346;2023-01-26T03:07:44;94824.84;;;0.30;100.00
6680;BME280;3376;42.664;23.346;2023-01-26T03:10:11;94839.16;;;0.44;100.00
6680;BME280;3376;42.664;23.346;2023-01-26T03:12:40;94834.81;;;0.33;100.00
6680;BME280;3376;42.664;23.346;2023-01-26T03:15:08;94831.53;;;0.44;100.00
6680;BME280;3376;42.664;23.346;2023-01-26T03:18:01;94824.25;;;0.50;100.00
6680;BME280;3376;42.664;23.346;2023-01-26T03:20:46;94819.66;;;0.55;100.00
6680;BME280;3376;42.664;23.346;2023-01-26T03:23:29;94814.41;;;0.69;100.00
6680;BME280;3376;42.664;23.346;2023-01-26T03:26:28;94804.69;;;0.74;100.00
6680;BME280;3376;42.664;23.346;2023-01-26T03:29:13;94800.03;;;0.68;100.00
6680;BME280;3376;42.664;23.346;2023-01-26T03:31:40;94799.59;;;0.74;100.00
6680;BME280;3376;42.664;23.346;2023-01-26T03:34:08;94791.81;;;0.76;100.00
6680;BME280;3376;42.664;23.346;2023-01-26T03:36:34;94796.81;;;0.77;100.00
6680;BME280;3376;42.664;23.346;2023-01-26T03:39:02;94796.81;;;0.77;100.00
6680;BME280;3376;42.664;23.346;2023-01-26T03:41:29;94799.63;;;0.85;100.00
6680;BME280;3376;42.664;23.346;2023-01-26T03:44:13;94796.25;;;0.85;100.00
6680;BME280;3376;42.664;23.346;2023-01-26T03:46:57;94797.34;;;0.93;100.00
6680;BME280;3376;42.664;23.346;2023-01-26T03:49:42;94790.75;;;1.02;100.00
6680;BME280;3376;42.664;23.346;2023-01-26T03:52:26;94782.31;;;1.12;100.00
6680;BME280;3376;42.664;23.346;2023-01-26T03:55:10;94775.56;;;1.11;100.00
6680;BME280;3376;42.664;23.346;2023-01-26T03:57:55;94773.28;;;1.19;100.00
6680;BME280;3376;42.664;23.346;2023-01-26T04:00:21;94774.66;;;1.12;100.00
6680;BME280;3376;42.664;23.346;2023-01-26T04:02:48;94769.91;;;1.08;100.00
6680;BME280;3376;42.664;23.346;2023-01-26T04:05:33;94764.22;;;1.04;100.00
6680;BME280;3376;42.664;23.346;2023-01-26T04:08:18;94765.16;;;1.14;100.00
6680;BME280;3376;42.664;23.346;2023-01-26T04:10:52;94772.94;;;1.13;100.00
6680;BME280;3376;42.664;23.346;2023-01-26T04:13:20;94744.97;;;1.00;100.00
6680;BME280;3376;42.664;23.346;2023-01-26T04:16:06;94758.66;;;1.10;100.00
6680;BME280;3376;42.664;23.346;2023-01-26T04:18:50;94755.75;;;1.15;100.00
6680;BME280;3376;42.664;23.346;2023-01-26T04:21:35;94734.88;;;1.10;100.00
6680;BME280;3376;42.664;23.346;2023-01-26T04:24:04;94746.84;;;1.09;100.00
6680;BME280;3376;42.664;23.346;2023-01-26T04:26:35;94738.25;;;1.10;100.00
6680;BME280;3376;42.664;23.346;2023-01-26T04:29:03;94727.59;;;1.05;100.00
6680;BME280;3376;42.664;23.346;2023-01-26T04:31:30;94730.72;;;1.09;100.00
6680;BME280;3376;42.664;23.346;2023-01-26T04:33:57;94730.72;;;1.20;100.00
6680;BME280;3376;42.664;23.346;2023-01-26T04:36:24;94725.84;;;1.06;100.00
6680;BME280;3376;42.664;23.346;2023-01-26T04:38:53;94736.28;;;1.14;100.00
6680;BME280;3376;42.664;23.346;2023-01-26T04:41:20;94733.25;;;0.98;100.00
6680;BME280;3376;42.664;23.346;2023-01-26T04:43:47;94719.81;;;0.96;100.00
6680;BME280;3376;42.664;23.346;2023-01-26T04:46:13;94731.75;;;1.06;100.00
6680;BME280;3376;42.664;23.346;2023-01-26T04:48:40;94729.19;;;0.95;100.00
6680;BME280;3376;42.664;23.346;2023-01-26T04:51:09;94733.25;;;0.98;100.00
6680;BME280;3376;42.664;23.346;2023-01-26T04:53:37;94731.16;;;1.03;100.00
6680;BME280;3376;42.664;23.346;2023-01-26T04:56:07;94733.63;;;1.04;100.00
6680;BME280;3376;42.664;23.346;2023-01-26T04:58:34;94742.34;;;1.13;100.00
6680;BME280;3376;42.664;23.346;2023-01-26T05:01:01;94737.66;;;1.07;100.00
6680;BME280;3376;42.664;23.346;2023-01-26T05:03:27;94742.53;;;1.10;100.00
6680;BME280;3376;42.664;23.346;2023-01-26T05:05:54;94748.94;;;1.04;100.00
6680;BME280;3376;42.664;23.346;2023-01-26T05:08:21;94750.78;;;1.13;100.00
6680;BME280;3376;42.664;23.346;2023-01-26T05:10:48;94741.63;;;1.11;100.00
6680;BME280;3376;42.664;23.346;2023-01-26T05:13:17;94731.06;;;1.04;100.00
6680;BME280;3376;42.664;23.346;2023-01-26T05:15:45;94733.75;;;1.14;100.00
6680;BME280;3376;42.664;23.346;2023-01-26T05:18:12;94724.34;;;1.14;100.00
6680;BME280;3376;42.664;23.346;2023-01-26T05:20:38;94733.06;;;1.23;100.00
6680;BME280;3376;42.664;23.346;2023-01-26T05:23:05;94732.47;;;1.19;100.00
6680;BME280;3376;42.664;23.346;2023-01-26T05:25:32;94725.72;;;1.18;100.00
6680;BME280;3376;42.664;23.346;2023-01-26T05:27:59;94726.47;;;1.32;100.00
6680;BME280;3376;42.664;23.346;2023-01-26T05:30:27;94725.28;;;1.47;100.00
6680;BME280;3376;42.664;23.346;2023-01-26T05:32:59;94716.13;;;1.66;100.00
6680;BME280;3376;42.664;23.346;2023-01-26T05:35:26;94722.03;;;1.67;100.00
6680;BME280;3376;42.664;23.346;2023-01-26T05:37:53;94716.09;;;1.77;100.00
6680;BME280;3376;42.664;23.346;2023-01-26T05:40:20;94722.75;;;1.58;100.00
6680;BME280;3376;42.664;23.346;2023-01-26T05:42:47;94708.13;;;1.49;100.00
6680;BME280;3376;42.664;23.346;2023-01-26T05:45:14;94727.63;;;1.61;100.00
6680;BME280;3376;42.664;23.346;2023-01-26T05:47:43;94716.81;;;1.57;100.00
6680;BME280;3376;42.664;23.346;2023-01-26T05:50:11;94721.22;;;1.55;100.00
6680;BME280;3376;42.664;23.346;2023-01-26T05:52:38;94718.56;;;1.57;100.00
6680;BME280;3376;42.664;23.346;2023-01-26T05:55:06;94727.63;;;1.61;99.31
6680;BME280;3376;42.664;23.346;2023-01-26T05:57:33;94723.41;;;1.60;100.00
6680;BME280;3376;42.664;23.346;2023-01-26T06:00:01;94732.84;;;1.48;100.00
6680;BME280;3376;42.664;23.346;2023-01-26T06:02:27;94730.63;;;1.55;100.00
6680;BME280;3376;42.664;23.346;2023-01-26T06:04:55;94728.31;;;1.52;100.00
6680;BME280;3376;42.664;23.346;2023-01-26T06:07:22;94718.91;;;1.52;100.00
6680;BME280;3376;42.664;23.346;2023-01-26T06:09:50;94718.91;;;1.52;100.00
6680;BME280;3376;42.664;23.346;2023-01-26T06:12:19;94719.03;;;1.51;99.93
6680;BME280;3376;42.664;23.346;2023-01-26T06:14:46;94717.28;;;1.51;100.00
6680;BME280;3376;42.664;23.346;2023-01-26T06:17:14;94716.25;;;1.54;100.00
6680;BME280;3376;42.664;23.346;2023-01-26T06:19:41;94709.97;;;1.47;100.00
6680;BME280;3376;42.664;23.346;2023-01-26T06:22:10;94714.53;;;1.54;100.00
6680;BME280;3376;42.664;23.346;2023-01-26T06:24:37;94713.00;;;1.52;100.00
6680;BME280;3376;42.664;23.346;2023-01-26T06:27:06;94710.91;;;1.57;100.00
6680;BME280;3376;42.664;23.346;2023-01-26T06:29:34;94691.75;;;1.51;100.00
6680;BME280;3376;42.664;23.346;2023-01-26T06:32:00;94701.19;;;1.51;100.00
6680;BME280;3376;42.664;23.346;2023-01-26T06:34:27;94701.59;;;1.67;100.00
6680;BME280;3376;42.664;23.346;2023-01-26T06:36:54;94695.34;;;1.71;100.00
6680;BME280;3376;42.664;23.346;2023-01-26T06:39:22;94699.28;;;1.75;99.18
6680;BME280;3376;42.664;23.346;2023-01-26T06:41:49;94691.72;;;1.73;100.00
6680;BME280;3376;42.664;23.346;2023-01-26T06:44:15;94695.81;;;1.76;99.02
6680;BME280;3376;42.664;23.346;2023-01-26T06:46:42;94695.91;;;1.63;98.01
6680;BME280;3376;42.664;23.346;2023-01-26T06:49:09;94695.03;;;1.42;99.04
6680;BME280;3376;42.664;23.346;2023-01-26T06:51:45;94703.28;;;1.46;99.74
6680;BME280;3376;42.664;23.346;2023-01-26T06:54:14;94701.63;;;1.45;99.49
6680;BME280;3376;42.664;23.346;2023-01-26T06:56:42;94697.47;;;1.44;100.00
6680;BME280;3376;42.664;23.346;2023-01-26T06:59:09;94691.41;;;1.45;100.00
6680;BME280;3376;42.664;23.346;2023-01-26T07:01:38;94690.50;;;1.46;100.00
6680;BME280;3376;42.664;23.346;2023-01-26T07:04:06;94688.50;;;1.49;100.00
6680;BME280;3376;42.664;23.346;2023-01-26T07:06:33;94698.38;;;1.54;100.00
6680;BME280;3376;42.664;23.346;2023-01-26T07:09:00;94681.81;;;1.37;100.00
6680;BME280;3376;42.664;23.346;2023-01-26T07:11:26;94672.97;;;1.41;100.00
6680;BME280;3376;42.664;23.346;2023-01-26T07:13:56;94690.38;;;1.47;100.00
6680;BME280;3376;42.664;23.346;2023-01-26T07:16:23;94682.13;;;1.33;100.00
6680;BME280;3376;42.664;23.346;2023-01-26T07:18:51;94641.69;;;1.06;100.00
6680;BME280;3376;42.664;23.346;2023-01-26T07:21:19;94674.25;;;1.36;100.00
6680;BME280;3376;42.664;23.346;2023-01-26T07:23:47;94680.28;;;1.35;100.00
6680;BME280;3376;42.664;23.346;2023-01-26T07:26:15;94665.44;;;1.40;100.00
6680;BME280;3376;42.664;23.346;2023-01-26T07:28:41;94671.47;;;1.39;100.00
6680;BME280;3376;42.664;23.346;2023-01-26T07:31:10;94669.50;;;1.42;100.00
6680;BME280;3376;42.664;23.346;2023-01-26T07:33:38;94663.81;;;1.50;100.00
6680;BME280;3376;42.664;23.346;2023-01-26T07:36:05;94666.34;;;1.50;100.00
6680;BME280;3376;42.664;23.346;2023-01-26T07:38:32;94631.34;;;1.30;100.00
6680;BME280;3376;42.664;23.346;2023-01-26T07:41:04;94663.56;;;1.64;99.99
6680;BME280;3376;42.664;23.346;2023-01-26T07:43:32;94667.84;;;1.63;100.00
6680;BME280;3376;42.664;23.346;2023-01-26T07:45:59;94667.50;;;1.68;100.00
6680;BME280;3376;42.664;23.346;2023-01-26T07:48:27;94669.34;;;1.66;100.00
6680;BME280;3376;42.664;23.346;2023-01-26T07:50:57;94663.06;;;1.70;99.86
6680;BME280;3376;42.664;23.346;2023-01-26T07:53:25;94577.31;;;1.13;98.96
6680;BME280;3376;42.664;23.346;2023-01-26T07:55:54;94664.59;;;1.72;100.00
6680;BME280;3376;42.664;23.346;2023-01-26T07:58:21;94660.44;;;1.60;100.00
6680;BME280;3376;42.664;23.346;2023-01-26T08:00:48;94629.00;;;1.38;99.88
6680;BME280;3376;42.664;23.346;2023-01-26T08:03:15;94641.91;;;1.36;99.90
6680;BME280;3376;42.664;23.346;2023-01-26T08:05:43;94661.13;;;1.51;100.00
6680;BME280;3376;42.664;23.346;2023-01-26T08:08:11;94657.41;;;1.44;100.00
6680;BME280;3376;42.664;23.346;2023-01-26T08:10:38;94656.03;;;1.51;100.00
6680;BME280;3376;42.664;23.346;2023-01-26T08:13:04;94656.38;;;1.58;100.00
6680;BME280;3376;42.664;23.346;2023-01-26T08:15:31;94643.13;;;1.53;100.00
6680;BME280;3376;42.664;23.346;2023-01-26T08:17:58;94642.31;;;1.63;100.00
6680;BME280;3376;42.664;23.346;2023-01-26T08:20:28;94634.78;;;1.62;99.19
6680;BME280;3376;42.664;23.346;2023-01-26T08:22:56;94634.97;;;1.70;100.00
6680;BME280;3376;42.664;23.346;2023-01-26T08:25:23;94640.41;;;1.87;98.99
6680;BME280;3376;42.664;23.346;2023-01-26T08:27:49;94644.19;;;2.04;98.33
6680;BME280;3376;42.664;23.346;2023-01-26T08:30:16;94647.41;;;2.06;98.76
6680;BME280;3376;42.664;23.346;2023-01-26T08:32:43;94630.94;;;1.99;97.27
6680;BME280;3376;42.664;23.346;2023-01-26T08:35:10;94631.44;;;1.93;97.33
6680;BME280;3376;42.664;23.346;2023-01-26T08:37:36;94635.84;;;2.02;97.00
6680;BME280;3376;42.664;23.346;2023-01-26T08:40:06;94612.44;;;1.86;97.51
6680;BME280;3376;42.664;23.346;2023-01-26T08:42:33;94629.47;;;1.96;96.81
6680;BME280;3376;42.664;23.346;2023-01-26T08:45:00;94619.78;;;1.79;98.13
6680;BME280;3376;42.664;23.346;2023-01-26T08:47:26;94631.38;;;1.83;98.60
6680;BME280;3376;42.664;23.346;2023-01-26T08:49:53;94643.53;;;1.91;97.91
6680;BME280;3376;42.664;23.346;2023-01-26T08:52:20;94629.28;;;1.88;98.95
6680;BME280;3376;42.664;23.346;2023-01-26T08:54:47;94644.59;;;1.88;97.44
6680;BME280;3376;42.664;23.346;2023-01-26T08:57:15;94633.41;;;1.58;96.94
6680;BME280;3376;42.664;23.346;2023-01-26T08:59:41;94634.31;;;1.57;97.38
6680;BME280;3376;42.664;23.346;2023-01-26T09:02:08;94622.06;;;1.51;97.38
6680;BME280;3376;42.664;23.346;2023-01-26T09:04:35;94638.28;;;1.61;96.66
6680;BME280;3376;42.664;23.346;2023-01-26T09:07:02;94646.19;;;1.47;96.94
6680;BME280;3376;42.664;23.346;2023-01-26T09:09:30;94631.94;;;1.33;97.28
6680;BME280;3376;42.664;23.346;2023-01-26T09:11:56;94629.97;;;1.37;97.70
6680;BME280;3376;42.664;23.346;2023-01-26T09:14:25;94624.69;;;1.49;98.98
6680;BME280;3376;42.664;23.346;2023-01-26T09:16:52;94621.59;;;1.46;98.75
6680;BME280;3376;42.664;23.346;2023-01-26T09:19:19;94614.28;;;1.52;99.33
6680;BME280;3376;42.664;23.346;2023-01-26T09:21:46;94621.31;;;1.60;98.45
6680;BME280;3376;42.664;23.346;2023-01-26T09:24:13;94623.72;;;1.72;98.62
6680;BME280;3376;42.664;23.346;2023-01-26T09:26:39;94607.81;;;1.80;98.58
6680;BME280;3376;42.664;23.346;2023-01-26T09:29:06;94619.84;;;1.89;96.32
6680;BME280;3376;42.664;23.346;2023-01-26T09:31:34;94605.09;;;1.92;96.25
6680;BME280;3376;42.664;23.346;2023-01-26T09:34:01;94585.00;;;1.67;96.22
6680;BME280;3376;42.664;23.346;2023-01-26T09:36:27;94586.94;;;1.75;97.33
6680;BME280;3376;42.664;23.346;2023-01-26T09:38:54;94591.31;;;1.84;97.61
6680;BME280;3376;42.664;23.346;2023-01-26T09:41:42;94579.22;;;1.86;96.56
6680;BME280;3376;42.664;23.346;2023-01-26T09:44:15;94598.69;;;1.98;95.98
6680;BME280;3376;42.664;23.346;2023-01-26T09:46:56;94599.50;;;1.98;96.93
6680;BME280;3376;42.664;23.346;2023-01-26T09:49:30;94580.13;;;1.96;97.18
6680;BME280;3376;42.664;23.346;2023-01-26T09:52:02;94578.81;;;2.01;98.20
6680;BME280;3376;42.664;23.346;2023-01-26T09:54:35;94576.66;;;2.17;95.63
6680;BME280;3376;42.664;23.346;2023-01-26T09:57:11;94550.13;;;2.09;96.59
6680;BME280;3376;42.664;23.346;2023-01-26T09:59:43;94576.66;;;2.38;96.09
6680;BME280;3376;42.664;23.346;2023-01-26T10:02:22;94566.63;;;2.46;95.19
6680;BME280;3376;42.664;23.346;2023-01-26T10:04:55;94563.53;;;2.52;93.67
6680;BME280;3376;42.664;23.346;2023-01-26T10:07:22;94569.72;;;2.50;93.24
6680;BME280;3376;42.664;23.346;2023-01-26T10:09:50;94547.78;;;2.47;93.58
6680;BME280;3376;42.664;23.346;2023-01-26T10:12:21;94553.84;;;2.46;93.20
6680;BME280;3376;42.664;23.346;2023-01-26T10:14:51;94577.69;;;2.56;93.30
6680;BME280;3376;42.664;23.346;2023-01-26T10:17:29;94565.75;;;2.57;93.63
6680;BME280;3376;42.664;23.346;2023-01-26T10:20:03;94554.97;;;2.53;93.00
6680;BME280;3376;42.664;23.346;2023-01-26T10:22:37;94533.56;;;2.54;93.32
6680;BME280;3376;42.664;23.346;2023-01-26T10:25:13;94536.66;;;2.58;92.64
6680;BME280;3376;42.664;23.346;2023-01-26T10:27:41;94529.56;;;2.61;93.05
6680;BME280;3376;42.664;23.346;2023-01-26T10:30:11;94520.56;;;2.67;92.86
6680;BME280;3376;42.664;23.346;2023-01-26T10:32:41;94522.72;;;2.71;93.17
6680;BME280;3376;42.664;23.346;2023-01-26T10:35:14;94517.47;;;2.73;92.51
6680;BME280;3376;42.664;23.346;2023-01-26T10:37:42;94507.78;;;2.67;94.63
6680;BME280;3376;42.664;23.346;2023-01-26T10:40:09;94512.28;;;2.74;93.96
6680;BME280;3376;42.664;23.346;2023-01-26T10:42:37;94489.66;;;2.79;93.10
6680;BME280;3376;42.664;23.346;2023-01-26T10:45:06;94476.22;;;2.87;93.96
6680;BME280;3376;42.664;23.346;2023-01-26T10:48:01;94480.56;;;2.96;94.10
6680;BME280;3376;42.664;23.346;2023-01-26T10:50:28;94474.34;;;2.98;91.89
6680;BME280;3376;42.664;23.346;2023-01-26T10:52:57;94467.94;;;3.13;92.49
6680;BME280;3376;42.664;23.346;2023-01-26T10:55:24;94449.09;;;3.24;91.08
6680;BME280;3376;42.664;23.346;2023-01-26T10:57:52;94447.72;;;3.29;91.44
6680;BME280;3376;42.664;23.346;2023-01-26T11:00:23;94447.06;;;3.27;91.24
6680;BME280;3376;42.664;23.346;2023-01-26T11:02:52;94435.34;;;3.34;91.98
6680;BME280;3376;42.664;23.346;2023-01-26T11:05:23;94432.53;;;3.18;91.76
6680;BME280;3376;42.664;23.346;2023-01-26T11:07:51;94434.25;;;3.27;91.65
6680;BME280;3376;42.664;23.346;2023-01-26T11:10:29;94417.69;;;3.31;90.11
6680;BME280;3376;42.664;23.346;2023-01-26T11:13:07;94407.75;;;3.28;90.10
6680;BME280;3376;42.664;23.346;2023-01-26T11:15:36;94406.94;;;3.37;91.34
6680;BME280;3376;42.664;23.346;2023-01-26T11:18:14;94406.09;;;3.46;90.32
6680;BME280;3376;42.664;23.346;2023-01-26T11:20:55;94407.59;;;3.39;88.94
6680;BME280;3376;42.664;23.346;2023-01-26T11:26:42;94393.44;;;3.26;90.97
6680;BME280;3376;42.664;23.346;2023-01-26T11:29:28;94391.97;;;3.14;90.66
6680;BME280;3376;42.664;23.346;2023-01-26T11:32:05;94384.28;;;3.04;90.98
6680;BME280;3376;42.664;23.346;2023-01-26T11:34:44;94261.72;;;2.25;93.17
6680;BME280;3376;42.664;23.346;2023-01-26T11:37:35;94381.72;;;3.14;92.75
6680;BME280;3376;42.664;23.346;2023-01-26T11:40:16;94373.66;;;2.99;91.89
6680;BME280;3376;42.664;23.346;2023-01-26T11:42:50;94358.72;;;2.95;92.55
6680;BME280;3376;42.664;23.346;2023-01-26T11:45:26;94356.44;;;3.01;92.15
6680;BME280;3376;42.664;23.346;2023-01-26T11:48:05;94360.06;;;2.89;93.48
6680;BME280;3376;42.664;23.346;2023-01-26T11:50:36;94370.00;;;2.92;93.44
6680;BME280;3376;42.664;23.346;2023-01-26T11:53:14;94360.19;;;2.88;92.78
6680;BME280;3376;42.664;23.346;2023-01-26T11:55:56;94370.53;;;2.67;94.44
6680;BME280;3376;42.664;23.346;2023-01-26T11:58:30;94352.31;;;2.61;96.26
6680;BME280;3376;42.664;23.346;2023-01-26T12:01:00;94360.13;;;2.59;95.27
6680;BME280;3376;42.664;23.346;2023-01-26T12:03:34;94350.31;;;2.45;95.87
6680;BME280;3376;42.664;23.346;2023-01-26T12:06:06;94345.88;;;2.57;96.41
6680;BME280;3376;42.664;23.346;2023-01-26T12:08:38;94347.06;;;2.43;96.15
6680;BME280;3376;42.664;23.346;2023-01-26T12:11:09;94343.56;;;2.44;96.79
6680;BME280;3376;42.664;23.346;2023-01-26T12:13:54;94345.41;;;2.32;96.83
6680;BME280;3376;42.664;23.346;2023-01-26T12:16:29;94345.00;;;2.27;98.32
6680;BME280;3376;42.664;23.346;2023-01-26T12:19:05;94326.16;;;2.19;97.72
6680;BME280;3376;42.664;23.346;2023-01-26T12:21:36;94323.41;;;2.11;99.33
6680;BME280;3376;42.664;23.346;2023-01-26T12:24:11;94315.34;;;2.06;99.84
6680;BME280;3376;42.664;23.346;2023-01-26T12:26:43;94300.88;;;2.25;99.77
6680;BME280;3376;42.664;23.346;2023-01-26T12:29:15;94295.78;;;2.25;99.13
6680;BME280;3376;42.664;23.346;2023-01-26T12:31:47;94296.97;;;2.21;99.32
6680;BME280;3376;42.664;23.346;2023-01-26T12:34:15;94271.25;;;2.04;100.00
6680;BME280;3376;42.664;23.346;2023-01-26T12:36:48;94295.22;;;2.22;100.00
6680;BME280;3376;42.664;23.346;2023-01-26T12:39:23;94287.28;;;2.25;100.00
6680;BME280;3376;42.664;23.346;2023-01-26T12:42:02;94290.94;;;2.32;100.00
6680;BME280;3376;42.664;23.346;2023-01-26T12:44:37;94279.78;;;2.33;100.00
6680;BME280;3376;42.664;23.346;2023-01-26T12:47:10;94300.34;;;2.31;100.00
6680;BME280;3376;42.664;23.346;2023-01-26T12:49:44;94281.91;;;2.18;100.00
6680;BME280;3376;42.664;23.346;2023-01-26T12:52:16;94268.72;;;2.04;100.00
6680;BME280;3376;42.664;23.346;2023-01-26T12:54:49;94288.47;;;2.11;100.00
6680;BME280;3376;42.664;23.346;2023-01-26T12:57:21;94266.81;;;2.06;100.00
6680;BME280;3376;42.664;23.346;2023-01-26T12:59:49;94282.84;;;2.27;100.00
6680;BME280;3376;42.664;23.346;2023-01-26T13:02:24;94270.22;;;2.25;100.00
6680;BME280;3376;42.664;23.346;2023-01-26T13:04:52;94265.66;;;2.38;100.00
6680;BME280;3376;42.664;23.346;2023-01-26T13:07:31;94279.13;;;2.50;100.00
6680;BME280;3376;42.664;23.346;2023-01-26T13:10:20;94272.66;;;2.46;100.00
6680;BME280;3376;42.664;23.346;2023-01-26T13:12:49;94261.59;;;2.17;100.00
6680;BME280;3376;42.664;23.346;2023-01-26T13:15:17;94279.06;;;2.12;100.00
6680;BME280;3376;42.664;23.346;2023-01-26T13:17:49;94269.50;;;2.04;100.00
6680;BME280;3376;42.664;23.346;2023-01-26T13:20:43;94268.72;;;2.13;100.00
6680;BME280;3376;42.664;23.346;2023-01-26T13:23:36;94269.53;;;2.14;100.00
6680;BME280;3376;42.664;23.346;2023-01-26T13:29:28;94270.31;;;2.05;100.00
6680;BME280;3376;42.664;23.346;2023-01-26T13:31:58;94265.59;;;2.00;100.00
6680;BME280;3376;42.664;23.346;2023-01-26T13:34:28;94259.97;;;2.06;100.00
6680;BME280;3376;42.664;23.346;2023-01-26T13:37:03;94261.28;;;2.01;100.00
6680;BME280;3376;42.664;23.346;2023-01-26T13:39:35;94250.22;;;1.91;100.00